createdAt,value
2022-12-03T00:02:22.399Z,2.06
2022-12-03T00:05:24.971Z,1.87
2022-12-03T00:08:27.711Z,2.16
2022-12-03T00:11:30.261Z,2.20
2022-12-03T00:14:32.726Z,2.02
2022-12-03T00:17:35.677Z,2.01
2022-12-03T00:20:38.130Z,1.93
2022-12-03T00:23:42.512Z,2.05
2022-12-03T00:26:45.072Z,2.02
2022-12-03T00:29:48.616Z,2.13
2022-12-03T00:32:51.012Z,2.17
2022-12-03T00:35:53.527Z,2.19
2022-12-03T00:38:56.148Z,2.05
2022-12-03T00:41:59.664Z,2.01
2022-12-03T00:45:02.109Z,2.04
2022-12-03T00:48:04.651Z,2.13
2022-12-03T00:51:07.206Z,2.17
2022-12-03T00:54:09.636Z,2.19
2022-12-03T00:57:12.182Z,2.28
2022-12-03T01:00:16.804Z,2.10
2022-12-03T01:03:19.389Z,2.17
2022-12-03T01:06:21.984Z,2.17
2022-12-03T01:09:24.424Z,2.17
2022-12-03T01:12:26.888Z,2.08
2022-12-03T01:15:29.349Z,1.97
2022-12-03T01:18:32.089Z,1.73
2022-12-03T01:21:35.004Z,1.72
2022-12-03T01:24:37.367Z,1.48
2022-12-03T01:27:39.809Z,1.58
2022-12-03T01:31:02.289Z,1.49
2022-12-03T01:34:05.304Z,1.49
2022-12-03T01:37:07.736Z,1.56
2022-12-03T01:40:12.448Z,1.42
2022-12-03T01:43:14.909Z,1.63
2022-12-03T01:46:20.742Z,1.51
2022-12-03T01:49:28.706Z,1.69
2022-12-03T01:52:33.557Z,1.73
2022-12-03T01:55:36.275Z,1.64
2022-12-03T01:58:39.053Z,1.57
2022-12-03T02:01:41.592Z,1.54
2022-12-03T02:04:44.110Z,1.48
2022-12-03T02:07:46.949Z,1.52
2022-12-03T02:10:49.413Z,1.54
2022-12-03T02:13:55.895Z,1.54
2022-12-03T02:17:00.471Z,1.53
2022-12-03T02:20:04.756Z,1.40
2022-12-03T02:23:12.000Z,1.59
2022-12-03T02:26:14.464Z,1.49
2022-12-03T02:29:16.875Z,1.61
2022-12-03T02:32:20.608Z,1.68
2022-12-03T02:35:29.419Z,1.59
2022-12-03T02:38:32.730Z,1.71
2022-12-03T02:41:54.207Z,1.62
2022-12-03T02:45:02.037Z,1.71
2022-12-03T02:48:11.832Z,1.68
2022-12-03T02:51:14.236Z,1.72
2022-12-03T02:54:16.651Z,1.61
2022-12-03T02:57:19.151Z,1.76
2022-12-03T03:00:23.020Z,1.74
2022-12-03T03:03:27.560Z,1.79
2022-12-03T03:06:30.196Z,1.57
2022-12-03T03:09:33.642Z,1.59
2022-12-03T03:12:39.211Z,1.72
2022-12-03T03:15:42.508Z,1.71
2022-12-03T03:18:45.081Z,1.71
2022-12-03T03:21:47.922Z,1.74
2022-12-03T03:24:50.586Z,1.68
2022-12-03T03:27:53.249Z,1.73
2022-12-03T03:30:56.793Z,1.83
2022-12-03T03:33:59.238Z,1.71
2022-12-03T03:37:01.791Z,1.74
2022-12-03T03:40:04.644Z,1.80
2022-12-03T03:43:07.267Z,1.63
2022-12-03T03:46:10.351Z,1.59
2022-12-03T03:49:14.666Z,1.68
2022-12-03T03:52:18.617Z,1.86
2022-12-03T03:55:21.054Z,1.67
2022-12-03T03:58:23.479Z,1.64
2022-12-03T04:01:26.055Z,1.58
2022-12-03T04:04:33.641Z,1.56
2022-12-03T04:07:36.147Z,1.49
2022-12-03T04:10:57.002Z,1.45
2022-12-03T04:13:59.467Z,1.21
2022-12-03T04:17:01.986Z,1.30
2022-12-03T04:20:05.438Z,1.31
2022-12-03T04:23:08.133Z,1.26
2022-12-03T04:26:28.720Z,1.25
2022-12-03T04:29:31.101Z,1.46
2022-12-03T04:32:51.737Z,1.48
2022-12-03T04:35:54.233Z,1.37
2022-12-03T04:38:56.696Z,1.35
2022-12-03T04:41:59.163Z,1.46
2022-12-03T04:45:01.604Z,1.38
2022-12-03T04:48:04.351Z,1.17
2022-12-03T04:51:06.753Z,1.22
2022-12-03T04:54:09.144Z,1.09
2022-12-03T04:57:12.771Z,1.22
2022-12-03T05:00:15.883Z,1.11
2022-12-03T05:03:18.376Z,0.86
2022-12-03T05:06:20.782Z,0.84
2022-12-03T05:09:23.477Z,0.65
2022-12-03T05:12:25.916Z,0.59
2022-12-03T05:15:28.308Z,0.44
2022-12-03T05:18:30.820Z,0.45
2022-12-03T05:21:33.415Z,0.69
2022-12-03T05:24:35.848Z,0.61
2022-12-03T05:27:38.256Z,0.69
2022-12-03T05:30:41.139Z,0.75
2022-12-03T05:33:44.520Z,0.60
2022-12-03T05:36:47.128Z,0.67
2022-12-03T05:39:49.628Z,0.72
2022-12-03T05:42:55.036Z,0.79
2022-12-03T05:45:57.554Z,0.61
2022-12-03T05:49:00.144Z,0.69
2022-12-03T05:52:02.909Z,0.58
2022-12-03T05:55:05.893Z,0.61
2022-12-03T05:58:08.396Z,0.59
2022-12-03T06:01:10.783Z,0.82
2022-12-03T06:04:13.200Z,0.69
2022-12-03T06:07:15.663Z,0.60
2022-12-03T06:10:22.707Z,0.69
2022-12-03T06:13:25.096Z,0.66
2022-12-03T06:16:27.565Z,0.75
2022-12-03T06:19:30.115Z,0.67
2022-12-03T06:22:32.759Z,0.62
2022-12-03T06:25:35.163Z,0.52
2022-12-03T06:28:37.984Z,0.51
2022-12-03T06:31:40.484Z,0.43
2022-12-03T06:34:43.013Z,0.49
2022-12-03T06:37:45.492Z,0.58
2022-12-03T06:40:48.084Z,0.54
2022-12-03T06:43:50.506Z,0.69
2022-12-03T06:46:53.150Z,0.59
2022-12-03T06:49:55.627Z,0.27
2022-12-03T06:52:58.068Z,0.20
2022-12-03T06:56:00.614Z,0.11
2022-12-03T06:59:03.179Z,0.18
2022-12-03T07:02:05.900Z,0.20
2022-12-03T07:05:08.543Z,0.47
2022-12-03T07:08:11.232Z,0.50
2022-12-03T07:11:32.159Z,0.59
2022-12-03T07:14:34.551Z,0.72
2022-12-03T07:17:36.956Z,0.81
2022-12-03T07:20:39.567Z,0.82
2022-12-03T07:23:42.005Z,0.84
2022-12-03T07:26:44.393Z,0.64
2022-12-03T07:29:46.954Z,0.73
2022-12-03T07:32:49.496Z,1.08
2022-12-03T07:35:52.286Z,1.31
2022-12-03T07:38:54.882Z,1.35
2022-12-03T07:41:57.421Z,1.53
2022-12-03T07:44:59.851Z,1.46
2022-12-03T07:48:02.273Z,1.75
2022-12-03T07:51:05.253Z,1.87
2022-12-03T07:54:07.830Z,1.84
2022-12-03T07:57:10.232Z,1.91
2022-12-03T08:00:13.268Z,1.91
2022-12-03T08:03:15.718Z,1.98
2022-12-03T08:06:18.216Z,1.84
2022-12-03T08:09:20.608Z,2.05
2022-12-03T08:12:40.158Z,2.04
2022-12-03T08:15:43.207Z,2.18
2022-12-03T08:18:46.781Z,2.04
2022-12-03T08:21:49.578Z,1.86
2022-12-03T08:24:52.316Z,2.17
2022-12-03T08:28:07.881Z,2.19
2022-12-03T08:31:12.973Z,2.24
2022-12-03T08:34:17.665Z,2.28
2022-12-03T08:37:20.144Z,2.29
2022-12-03T08:40:26.171Z,2.26
2022-12-03T08:43:29.356Z,2.20
2022-12-03T08:46:31.783Z,2.41
2022-12-03T08:49:34.408Z,2.46
2022-12-03T08:52:37.019Z,2.58
2022-12-03T08:55:43.659Z,3.08
2022-12-03T08:59:24.073Z,3.41
2022-12-03T09:02:31.903Z,3.47
2022-12-03T09:05:52.463Z,3.56
2022-12-03T09:08:55.014Z,3.57
2022-12-03T09:11:57.605Z,3.73
2022-12-03T09:14:59.980Z,3.82
2022-12-03T09:18:02.425Z,3.96
2022-12-03T09:21:05.803Z,3.81
2022-12-03T09:24:08.301Z,3.62
2022-12-03T09:27:10.708Z,3.59
2022-12-03T09:30:13.424Z,3.81
2022-12-03T09:33:15.908Z,3.82
2022-12-03T09:36:18.405Z,4.04
2022-12-03T09:39:20.951Z,4.04
2022-12-03T09:42:23.377Z,4.04
2022-12-03T09:45:25.900Z,4.30
2022-12-03T09:48:28.357Z,4.30
2022-12-03T09:51:35.484Z,4.29
2022-12-03T09:54:41.636Z,4.41
2022-12-03T09:57:48.249Z,4.41
2022-12-03T10:00:52.302Z,4.39
2022-12-03T10:03:54.788Z,4.56
2022-12-03T10:06:58.094Z,4.47
2022-12-03T10:10:00.546Z,4.70
2022-12-03T10:13:06.279Z,4.76
2022-12-03T10:16:12.209Z,4.86
2022-12-03T10:19:22.891Z,4.98
2022-12-03T10:22:25.315Z,5.01
2022-12-03T10:25:27.711Z,5.22
2022-12-03T10:28:33.213Z,5.34
2022-12-03T10:31:36.727Z,5.32
2022-12-03T10:34:42.530Z,5.39
2022-12-03T10:37:56.776Z,5.54
2022-12-03T10:41:00.108Z,5.59
2022-12-03T10:44:30.642Z,5.91
2022-12-03T10:47:33.268Z,5.91
2022-12-03T10:50:36.288Z,5.81
2022-12-03T10:53:40.576Z,5.73
2022-12-03T10:56:43.273Z,5.91
2022-12-03T10:59:45.702Z,5.80
2022-12-03T11:02:54.925Z,5.86
2022-12-03T11:06:05.991Z,5.91
2022-12-03T11:09:20.110Z,6.15
2022-12-03T11:12:28.625Z,6.10
2022-12-03T11:15:44.345Z,6.15
2022-12-03T11:18:49.852Z,6.28
2022-12-03T11:22:05.626Z,6.35
2022-12-03T11:25:28.803Z,6.36
2022-12-03T11:28:32.036Z,6.26
2022-12-03T11:31:39.536Z,6.42
2022-12-03T11:34:42.141Z,6.54
2022-12-03T11:37:44.656Z,6.62
2022-12-03T11:41:11.086Z,6.67
2022-12-03T11:44:31.754Z,6.79
2022-12-03T11:47:38.518Z,6.88
2022-12-03T11:50:52.037Z,6.92
2022-12-03T11:53:58.524Z,6.79
2022-12-03T11:57:01.152Z,6.81
2022-12-03T12:00:20.616Z,6.77
2022-12-03T12:03:33.286Z,6.87
2022-12-03T12:06:48.709Z,6.86
2022-12-03T12:09:55.489Z,6.91
2022-12-03T12:12:58.213Z,6.93
2022-12-03T12:16:06.250Z,6.96
2022-12-03T12:19:43.269Z,7.29
2022-12-03T12:22:45.664Z,7.38
2022-12-03T12:25:53.793Z,7.37
2022-12-03T12:28:56.711Z,7.37
2022-12-03T12:32:13.212Z,7.45
2022-12-03T12:35:19.180Z,7.58
2022-12-03T12:38:22.622Z,8.17
2022-12-03T12:41:25.071Z,8.27
2022-12-03T12:44:27.432Z,8.30
2022-12-03T12:47:30.307Z,8.53
2022-12-03T12:50:33.324Z,8.62
2022-12-03T12:53:36.889Z,8.88
2022-12-03T12:56:42.453Z,8.87
2022-12-03T12:59:45.265Z,9.14
2022-12-03T13:02:55.223Z,8.97
2022-12-03T13:05:57.993Z,9.02
2022-12-03T13:09:01.268Z,9.21
2022-12-03T13:12:04.254Z,8.88
2022-12-03T13:15:17.216Z,8.68
2022-12-03T13:18:28.615Z,8.59
2022-12-03T13:21:41.611Z,8.53
2022-12-03T13:24:47.696Z,8.36
2022-12-03T13:27:50.757Z,8.09
2022-12-03T13:30:53.306Z,7.96
2022-12-03T13:33:56.415Z,8.07
2022-12-03T13:37:01.002Z,8.02
2022-12-03T13:40:20.979Z,8.17
2022-12-03T13:43:23.405Z,8.27
2022-12-03T13:46:28.408Z,8.05
2022-12-03T13:49:30.951Z,7.90
2022-12-03T13:52:34.783Z,7.62
2022-12-03T13:55:40.421Z,7.42
2022-12-03T13:58:42.876Z,7.17
2022-12-03T14:01:45.829Z,7.09
2022-12-03T14:04:48.349Z,6.96
2022-12-03T14:07:50.821Z,6.92
2022-12-03T14:10:59.891Z,6.69
2022-12-03T14:14:03.329Z,6.43
2022-12-03T14:17:06.602Z,6.47
2022-12-03T14:20:10.042Z,6.30
2022-12-03T14:23:12.619Z,6.03
2022-12-03T14:26:15.327Z,5.75
2022-12-03T14:29:17.808Z,5.65
2022-12-03T14:32:20.177Z,5.50
2022-12-03T14:35:23.358Z,5.44
2022-12-03T14:38:25.976Z,5.19
2022-12-03T14:41:46.929Z,5.17
2022-12-03T14:44:50.496Z,5.19
2022-12-03T14:47:52.950Z,4.99
2022-12-03T14:50:55.414Z,4.75
2022-12-03T14:53:57.844Z,4.74
2022-12-03T14:57:00.591Z,4.63
2022-12-03T15:00:04.234Z,4.56
2022-12-03T15:03:06.745Z,4.45
2022-12-03T15:06:09.248Z,4.44
2022-12-03T15:09:12.063Z,4.44
2022-12-03T15:12:15.378Z,4.31
2022-12-03T15:15:17.849Z,4.55
2022-12-03T15:18:20.363Z,4.43
2022-12-03T15:21:22.738Z,4.35
2022-12-03T15:24:25.363Z,4.24
2022-12-03T15:27:27.808Z,4.03
2022-12-03T15:30:30.869Z,4.00
2022-12-03T15:33:33.397Z,3.83
2022-12-03T15:36:35.897Z,3.83
2022-12-03T15:39:42.459Z,3.78
2022-12-03T15:42:49.231Z,3.64
2022-12-03T15:45:51.802Z,3.80
2022-12-03T15:48:55.053Z,3.71
2022-12-03T15:51:57.584Z,3.54
2022-12-03T15:55:00.036Z,3.63
2022-12-03T15:58:02.444Z,3.64
2022-12-03T16:01:05.351Z,3.57
2022-12-03T16:04:08.157Z,3.45
2022-12-03T16:07:10.852Z,3.41
2022-12-03T16:10:13.383Z,3.29
2022-12-03T16:13:15.938Z,3.37
2022-12-03T16:16:18.653Z,3.31
2022-12-03T16:19:21.564Z,3.25
2022-12-03T16:22:24.207Z,3.29
2022-12-03T16:25:26.564Z,3.33
2022-12-03T16:28:29.332Z,3.27
2022-12-03T16:31:32.074Z,3.07
2022-12-03T16:34:34.772Z,2.95
2022-12-03T16:37:37.160Z,2.97
2022-12-03T16:40:39.978Z,2.92
2022-12-03T16:43:45.524Z,2.92
2022-12-03T16:46:48.135Z,2.91
2022-12-03T16:49:50.740Z,3.13
2022-12-03T16:52:53.243Z,3.16
2022-12-03T16:55:55.692Z,3.08
2022-12-03T16:58:58.154Z,3.13
2022-12-03T17:02:00.659Z,3.11
2022-12-03T17:05:03.479Z,3.09
2022-12-03T17:08:06.072Z,2.97
2022-12-03T17:11:09.221Z,2.89
2022-12-03T17:14:12.157Z,2.83
2022-12-03T17:17:14.589Z,2.95
2022-12-03T17:20:17.905Z,2.89
2022-12-03T17:23:20.336Z,2.83
2022-12-03T17:26:22.833Z,3.06
2022-12-03T17:29:25.892Z,2.92
2022-12-03T17:32:28.604Z,2.97
2022-12-03T17:35:31.118Z,2.81
2022-12-03T17:38:38.773Z,2.79
2022-12-03T17:41:42.038Z,2.69
2022-12-03T17:44:44.500Z,2.76
2022-12-03T17:47:46.952Z,2.67
2022-12-03T17:50:50.223Z,2.57
2022-12-03T17:53:52.630Z,2.44
2022-12-03T17:56:55.057Z,2.36
2022-12-03T17:59:57.610Z,2.17
2022-12-03T18:03:00.239Z,2.11
2022-12-03T18:06:03.307Z,2.08
2022-12-03T18:09:05.893Z,2.33
2022-12-03T18:12:08.321Z,2.28
2022-12-03T18:15:11.537Z,2.31
2022-12-03T18:18:14.380Z,2.31
2022-12-03T18:21:16.777Z,2.22
2022-12-03T18:24:19.434Z,2.32
2022-12-03T18:27:22.547Z,2.47
2022-12-03T18:30:25.193Z,2.46
2022-12-03T18:33:27.765Z,2.48
2022-12-03T18:36:34.481Z,2.33
2022-12-03T18:39:37.159Z,2.43
2022-12-03T18:42:39.689Z,2.32
2022-12-03T18:45:42.607Z,2.35
2022-12-03T18:48:48.076Z,2.46
2022-12-03T18:51:54.472Z,2.46
2022-12-03T18:55:01.343Z,2.29
2022-12-03T18:58:04.086Z,2.04
2022-12-03T19:01:08.043Z,1.97
2022-12-03T19:04:11.028Z,2.05
2022-12-03T19:07:13.952Z,2.05
2022-12-03T19:10:17.829Z,2.07
2022-12-03T19:13:20.471Z,1.93
2022-12-03T19:16:23.540Z,1.87
2022-12-03T19:19:27.374Z,1.86
2022-12-03T19:22:29.786Z,1.88
2022-12-03T19:25:33.047Z,1.98
2022-12-03T19:28:35.989Z,1.85
2022-12-03T19:31:39.503Z,1.80
2022-12-03T19:34:42.358Z,1.89
2022-12-03T19:37:46.444Z,1.79
2022-12-03T19:40:58.645Z,1.74
2022-12-03T19:44:03.153Z,1.73
2022-12-03T19:47:09.391Z,1.76
2022-12-03T19:50:19.318Z,1.77
2022-12-03T19:53:26.244Z,1.89
2022-12-03T19:56:30.494Z,1.95
2022-12-03T19:59:33.268Z,2.05
2022-12-03T20:02:35.973Z,2.11
2022-12-03T20:05:40.305Z,2.40
2022-12-03T20:08:43.412Z,2.64
2022-12-03T20:11:46.430Z,2.53
2022-12-03T20:14:50.112Z,2.25
2022-12-03T20:17:53.209Z,2.20
2022-12-03T20:21:00.089Z,2.30
2022-12-03T20:24:02.742Z,2.38
2022-12-03T20:27:05.466Z,2.37
2022-12-03T20:30:08.466Z,2.46
2022-12-03T20:33:13.613Z,2.89
2022-12-03T20:36:17.834Z,3.23
2022-12-03T20:39:20.674Z,3.31
2022-12-03T20:42:23.540Z,3.44
2022-12-03T20:45:27.307Z,3.45
2022-12-03T20:48:30.130Z,3.03
2022-12-03T20:51:33.024Z,3.05
2022-12-03T20:54:35.784Z,2.87
2022-12-03T20:57:38.237Z,2.86
2022-12-03T21:00:40.975Z,2.18
2022-12-03T21:03:45.165Z,1.94
2022-12-03T21:06:47.759Z,2.06
2022-12-03T21:09:50.877Z,2.16
2022-12-03T21:12:53.568Z,2.19
2022-12-03T21:16:07.256Z,2.00
2022-12-03T21:19:09.780Z,1.77
2022-12-03T21:22:12.352Z,1.52
2022-12-03T21:25:15.163Z,1.37
2022-12-03T21:28:17.547Z,1.14
2022-12-03T21:31:25.827Z,1.20
2022-12-03T21:34:35.518Z,1.27
2022-12-03T21:37:38.600Z,1.23
2022-12-03T21:40:41.070Z,1.10
2022-12-03T21:43:43.934Z,0.96
2022-12-03T21:47:12.689Z,0.83
2022-12-03T21:50:11.516Z,0.83
2022-12-03T21:53:13.930Z,0.93
2022-12-03T21:56:19.109Z,0.94
2022-12-03T21:59:21.607Z,0.90
2022-12-03T22:02:24.079Z,0.99
2022-12-03T22:05:26.558Z,1.04
2022-12-03T22:08:28.948Z,0.99
2022-12-03T22:11:31.449Z,0.90
2022-12-03T22:14:33.819Z,0.80
2022-12-03T22:17:37.201Z,0.79
2022-12-03T22:20:42.238Z,1.11
2022-12-03T22:23:45.071Z,1.09
2022-12-03T22:26:47.705Z,0.97
2022-12-03T22:29:50.157Z,0.73
2022-12-03T22:32:52.621Z,0.96
2022-12-03T22:35:59.954Z,0.74
2022-12-03T22:39:02.369Z,0.63
2022-12-03T22:42:04.997Z,0.75
2022-12-03T22:45:07.615Z,0.61
2022-12-03T22:48:10.280Z,0.85
2022-12-03T22:51:17.402Z,0.77
2022-12-03T22:54:23.915Z,0.73
2022-12-03T22:57:26.829Z,0.88
2022-12-03T23:00:32.621Z,1.26
2022-12-03T23:03:35.252Z,1.37
2022-12-03T23:06:38.205Z,1.13
2022-12-03T23:09:40.945Z,1.08
2022-12-03T23:12:43.661Z,0.81
2022-12-03T23:15:47.496Z,0.83
2022-12-03T23:18:50.688Z,0.79
2022-12-03T23:21:53.129Z,0.84
2022-12-03T23:24:55.633Z,0.90
2022-12-03T23:27:58.036Z,0.76
2022-12-03T23:31:00.784Z,0.60
2022-12-03T23:34:03.937Z,0.56
2022-12-03T23:37:06.500Z,0.63
2022-12-03T23:40:09.384Z,0.63
2022-12-03T23:43:11.951Z,0.80
2022-12-03T23:46:16.984Z,1.16
2022-12-03T23:49:19.449Z,1.39
2022-12-03T23:52:21.943Z,1.25
2022-12-03T23:55:24.409Z,1.03
2022-12-03T23:58:27.040Z,0.92
